sensor_id;sensor_type;location;lat;lon;timestamp;pressure;altitude;pressure_sealevel;temperature;humidity
72892;BME280;61032;50.782;6.818;2024-03-23T00:54:17;99873.97;;;10.00;84.09
72892;BME280;61032;50.782;6.818;2024-03-23T00:55:18;99875.56;;;10.01;84.17
72892;BME280;61032;50.782;6.818;2024-03-23T00:56:18;99872.38;;;9.99;84.28
72892;BME280;61032;50.782;6.818;2024-03-23T00:57:19;99872.38;;;9.99;84.22
72892;BME280;61032;50.782;6.818;2024-03-23T00:58:19;99880.16;;;9.97;84.69
72892;BME280;61032;50.782;6.818;2024-03-23T00:59:20;99879.47;;;10.00;84.57
72892;BME280;61032;50.782;6.818;2024-03-23T01:00:22;99877.84;;;9.99;83.89
72892;BME280;61032;50.782;6.818;2024-03-23T01:01:22;99879.00;;;9.98;84.09
72892;BME280;61032;50.782;6.818;2024-03-23T01:02:23;99875.34;;;9.94;83.96
72892;BME280;61032;50.782;6.818;2024-03-23T01:03:23;99879.91;;;9.90;83.60
72892;BME280;61032;50.782;6.818;2024-03-23T01:04:23;99875.44;;;9.85;84.22
72892;BME280;61032;50.782;6.818;2024-03-23T01:05:24;99876.59;;;9.84;84.09
72892;BME280;61032;50.782;6.818;2024-03-23T01:06:24;99866.75;;;9.83;84.58
72892;BME280;61032;50.782;6.818;2024-03-23T01:07:25;99866.16;;;9.78;84.63
72892;BME280;61032;50.782;6.818;2024-03-23T01:08:25;99869.72;;;9.78;85.37
72892;BME280;61032;50.782;6.818;2024-03-23T01:09:25;99870.97;;;9.81;85.66
72892;BME280;61032;50.782;6.818;2024-03-23T01:10:26;99870.97;;;9.81;85.51
72892;BME280;61032;50.782;6.818;2024-03-23T01:11:27;99872.56;;;9.82;85.79
72892;BME280;61032;50.782;6.818;2024-03-23T01:12:27;99869.50;;;9.83;85.04
72892;BME280;61032;50.782;6.818;2024-03-23T01:13:28;99870.41;;;9.87;85.29
72892;BME280;61032;50.782;6.818;2024-03-23T01:14:28;99865.06;;;9.91;85.17
72892;BME280;61032;50.782;6.818;2024-03-23T01:15:29;99859.91;;;9.89;84.65
72892;BME280;61032;50.782;6.818;2024-03-23T01:16:29;99859.09;;;9.89;84.73
72892;BME280;61032;50.782;6.818;2024-03-23T01:17:29;99857.16;;;9.89;85.03
72892;BME280;61032;50.782;6.818;2024-03-23T01:18:30;99855.91;;;9.87;84.46
72892;BME280;61032;50.782;6.818;2024-03-23T01:19:30;99861.72;;;9.85;84.79
72892;BME280;61032;50.782;6.818;2024-03-23T01:20:31;99861.72;;;9.85;85.20
72892;BME280;61032;50.782;6.818;2024-03-23T01:21:31;99860.91;;;9.85;84.96
72892;BME280;61032;50.782;6.818;2024-03-23T01:22:32;99859.44;;;9.87;85.34
72892;BME280;61032;50.782;6.818;2024-03-23T01:23:33;99862.06;;;9.84;85.20
72892;BME280;61032;50.782;6.818;2024-03-23T01:24:33;99855.09;;;9.74;84.21
72892;BME280;61032;50.782;6.818;2024-03-23T01:25:34;99854.97;;;9.71;84.19
72892;BME280;61032;50.782;6.818;2024-03-23T01:26:34;99857.38;;;9.72;84.81
72892;BME280;61032;50.782;6.818;2024-03-23T01:27:34;99858.63;;;9.75;85.18
72892;BME280;61032;50.782;6.818;2024-03-23T01:28:35;99858.16;;;9.73;85.24
72892;BME280;61032;50.782;6.818;2024-03-23T01:29:35;99863.19;;;9.71;85.65
72892;BME280;61032;50.782;6.818;2024-03-23T01:30:36;99855.75;;;9.71;85.41
72892;BME280;61032;50.782;6.818;2024-03-23T01:31:36;99857.69;;;9.71;85.27
72892;BME280;61032;50.782;6.818;2024-03-23T01:32:37;99860.44;;;9.71;85.89
72892;BME280;61032;50.782;6.818;2024-03-23T01:33:37;99863.66;;;9.73;85.73
72892;BME280;61032;50.782;6.818;2024-03-23T01:34:37;99866.75;;;9.71;84.84
72892;BME280;61032;50.782;6.818;2024-03-23T01:35:38;99873.84;;;9.72;85.34
72892;BME280;61032;50.782;6.818;2024-03-23T01:36:38;99865.94;;;9.71;85.37
72892;BME280;61032;50.782;6.818;2024-03-23T01:37:40;99858.50;;;9.71;85.50
72892;BME280;61032;50.782;6.818;2024-03-23T01:38:40;99852.69;;;9.73;85.08
72892;BME280;61032;50.782;6.818;2024-03-23T01:39:40;99849.94;;;9.73;85.23
72892;BME280;61032;50.782;6.818;2024-03-23T01:40:41;99854.16;;;9.70;85.12
72892;BME280;61032;50.782;6.818;2024-03-23T01:41:41;99847.59;;;9.62;84.97
72892;BME280;61032;50.782;6.818;2024-03-23T01:42:43;99854.03;;;9.67;85.17
72892;BME280;61032;50.782;6.818;2024-03-23T01:43:55;99839.84;;;9.64;85.07
72892;BME280;61032;50.782;6.818;2024-03-23T01:44:56;99842.47;;;9.61;84.64
72892;BME280;61032;50.782;6.818;2024-03-23T01:45:56;99842.13;;;9.62;85.28
72892;BME280;61032;50.782;6.818;2024-03-23T01:46:57;99831.59;;;9.64;85.80
72892;BME280;61032;50.782;6.818;2024-03-23T01:47:58;99839.03;;;9.64;85.35
72892;BME280;61032;50.782;6.818;2024-03-23T01:48:59;99842.38;;;9.70;85.44
72892;BME280;61032;50.782;6.818;2024-03-23T01:50:00;99838.28;;;9.76;85.28
72892;BME280;61032;50.782;6.818;2024-03-23T01:51:00;99827.19;;;9.84;85.01
72892;BME280;61032;50.782;6.818;2024-03-23T01:52:02;99834.06;;;9.90;83.90
72892;BME280;61032;50.782;6.818;2024-03-23T01:53:04;99838.28;;;9.88;83.87
72892;BME280;61032;50.782;6.818;2024-03-23T01:54:07;99840.91;;;9.84;83.50
72892;BME280;61032;50.782;6.818;2024-03-23T01:55:07;99846.59;;;9.79;82.75
72892;BME280;61032;50.782;6.818;2024-03-23T01:56:08;99843.88;;;9.79;82.99
72892;BME280;61032;50.782;6.818;2024-03-23T01:57:10;99833.47;;;9.85;82.68
72892;BME280;61032;50.782;6.818;2024-03-23T01:58:10;99837.91;;;9.77;81.77
72892;BME280;61032;50.782;6.818;2024-03-23T01:59:10;99834.72;;;9.75;81.79
72892;BME280;61032;50.782;6.818;2024-03-23T02:00:11;99840.97;;;9.63;82.53
72892;BME280;61032;50.782;6.818;2024-03-23T02:01:12;99847.59;;;9.62;82.75
72892;BME280;61032;50.782;6.818;2024-03-23T02:02:13;99845.34;;;9.64;83.00
72892;BME280;61032;50.782;6.818;2024-03-23T02:03:26;99853.78;;;9.59;82.69
72892;BME280;61032;50.782;6.818;2024-03-23T02:04:27;99852.88;;;9.55;83.01
72892;BME280;61032;50.782;6.818;2024-03-23T02:05:27;99853.78;;;9.59;82.48
72892;BME280;61032;50.782;6.818;2024-03-23T02:06:27;99851.13;;;9.51;82.07
72892;BME280;61032;50.782;6.818;2024-03-23T02:07:28;99854.69;;;9.51;82.22
72892;BME280;61032;50.782;6.818;2024-03-23T02:08:30;99846.59;;;9.55;82.13
72892;BME280;61032;50.782;6.818;2024-03-23T02:09:31;99849.56;;;9.62;81.78
72892;BME280;61032;50.782;6.818;2024-03-23T02:10:32;99850.81;;;9.64;81.61
72892;BME280;61032;50.782;6.818;2024-03-23T02:11:32;99847.28;;;9.64;80.75
72892;BME280;61032;50.782;6.818;2024-03-23T02:12:33;99842.34;;;9.57;81.31
72892;BME280;61032;50.782;6.818;2024-03-23T02:13:33;99823.94;;;9.58;81.35
72892;BME280;61032;50.782;6.818;2024-03-23T02:14:34;99839.50;;;9.54;81.85
72892;BME280;61032;50.782;6.818;2024-03-23T02:15:34;99840.28;;;9.54;82.05
72892;BME280;61032;50.782;6.818;2024-03-23T02:16:34;99837.09;;;9.52;81.71
72892;BME280;61032;50.782;6.818;2024-03-23T02:17:35;99838.91;;;9.48;81.63
72892;BME280;61032;50.782;6.818;2024-03-23T02:18:36;99840.72;;;9.44;82.40
72892;BME280;61032;50.782;6.818;2024-03-23T02:19:37;99847.34;;;9.43;83.11
72892;BME280;61032;50.782;6.818;2024-03-23T02:20:38;99829.94;;;9.39;83.39
72892;BME280;61032;50.782;6.818;2024-03-23T02:21:38;99837.94;;;9.32;82.60
72892;BME280;61032;50.782;6.818;2024-03-23T02:22:39;99836.53;;;9.26;81.84
72892;BME280;61032;50.782;6.818;2024-03-23T02:23:39;99838.34;;;9.22;80.63
72892;BME280;61032;50.782;6.818;2024-03-23T02:24:40;99836.28;;;9.19;79.86
72892;BME280;61032;50.782;6.818;2024-03-23T02:25:40;99840.16;;;9.18;79.75
72892;BME280;61032;50.782;6.818;2024-03-23T02:26:41;99841.75;;;9.19;79.58
72892;BME280;61032;50.782;6.818;2024-03-23T02:27:41;99850.66;;;9.16;79.01
72892;BME280;61032;50.782;6.818;2024-03-23T02:28:41;99847.53;;;9.05;78.52
72892;BME280;61032;50.782;6.818;2024-03-23T02:29:42;99852.28;;;8.96;78.56
72892;BME280;61032;50.782;6.818;2024-03-23T02:30:42;99857.91;;;8.79;78.72
72892;BME280;61032;50.782;6.818;2024-03-23T02:31:43;99861.53;;;8.71;78.50
72892;BME280;61032;50.782;6.818;2024-03-23T02:32:43;99862.06;;;8.64;78.71
72892;BME280;61032;50.782;6.818;2024-03-23T02:33:44;99863.38;;;8.58;78.60
72892;BME280;61032;50.782;6.818;2024-03-23T02:34:44;99865.16;;;8.54;77.97
72892;BME280;61032;50.782;6.818;2024-03-23T02:35:45;99866.31;;;8.53;77.84
72892;BME280;61032;50.782;6.818;2024-03-23T02:36:45;99870.56;;;8.42;77.34
72892;BME280;61032;50.782;6.818;2024-03-23T02:37:46;99871.72;;;8.41;77.89
72892;BME280;61032;50.782;6.818;2024-03-23T02:38:48;99871.22;;;8.39;77.74
72892;BME280;61032;50.782;6.818;2024-03-23T02:39:48;99878.00;;;8.41;77.54
72892;BME280;61032;50.782;6.818;2024-03-23T02:40:49;99884.28;;;8.42;76.89
72892;BME280;61032;50.782;6.818;2024-03-23T02:41:49;99877.19;;;8.41;76.88
72892;BME280;61032;50.782;6.818;2024-03-23T02:42:50;99885.25;;;8.37;76.59
72892;BME280;61032;50.782;6.818;2024-03-23T02:43:50;99884.31;;;8.33;77.06
72892;BME280;61032;50.782;6.818;2024-03-23T02:44:51;99890.31;;;8.18;77.36
72892;BME280;61032;50.782;6.818;2024-03-23T02:45:51;99889.03;;;8.15;78.28
72892;BME280;61032;50.782;6.818;2024-03-23T02:46:52;99893.22;;;8.21;78.54
72892;BME280;61032;50.782;6.818;2024-03-23T02:47:52;99894.16;;;8.25;78.78
72892;BME280;61032;50.782;6.818;2024-03-23T02:48:53;99902.84;;;8.27;78.70
72892;BME280;61032;50.782;6.818;2024-03-23T02:49:54;99904.31;;;8.25;78.76
72892;BME280;61032;50.782;6.818;2024-03-23T02:50:55;99906.25;;;8.24;78.90
72892;BME280;61032;50.782;6.818;2024-03-23T02:51:55;99901.25;;;8.26;78.74
72892;BME280;61032;50.782;6.818;2024-03-23T02:52:56;99898.66;;;8.30;79.03
72892;BME280;61032;50.782;6.818;2024-03-23T02:53:56;99904.47;;;8.28;79.17
72892;BME280;61032;50.782;6.818;2024-03-23T02:54:57;99895.78;;;8.18;79.48
72892;BME280;61032;50.782;6.818;2024-03-23T02:55:58;99893.53;;;8.20;79.35
72892;BME280;61032;50.782;6.818;2024-03-23T02:56:59;99895.00;;;8.17;79.06
72892;BME280;61032;50.782;6.818;2024-03-23T02:57:59;99884.22;;;8.12;79.29
72892;BME280;61032;50.782;6.818;2024-03-23T02:59:02;99879.94;;;8.03;78.63
72892;BME280;61032;50.782;6.818;2024-03-23T03:00:03;99879.28;;;7.97;78.79
72892;BME280;61032;50.782;6.818;2024-03-23T03:01:03;99873.16;;;8.00;79.42
72892;BME280;61032;50.782;6.818;2024-03-23T03:02:04;99871.09;;;7.97;79.70
72892;BME280;61032;50.782;6.818;2024-03-23T03:03:05;99879.28;;;7.97;79.49
72892;BME280;61032;50.782;6.818;2024-03-23T03:04:05;99873.97;;;8.01;79.23
72892;BME280;61032;50.782;6.818;2024-03-23T03:05:06;99865.28;;;7.99;79.43
72892;BME280;61032;50.782;6.818;2024-03-23T03:06:06;99869.97;;;7.98;79.02
72892;BME280;61032;50.782;6.818;2024-03-23T03:07:07;99876.72;;;8.01;79.03
72892;BME280;61032;50.782;6.818;2024-03-23T03:08:07;99878.31;;;8.02;79.51
72892;BME280;61032;50.782;6.818;2024-03-23T03:09:08;99874.59;;;8.06;79.50
72892;BME280;61032;50.782;6.818;2024-03-23T03:10:08;99876.53;;;8.06;79.46
72892;BME280;61032;50.782;6.818;2024-03-23T03:11:11;99878.47;;;8.05;79.52
72892;BME280;61032;50.782;6.818;2024-03-23T03:12:11;99871.38;;;8.04;79.43
72892;BME280;61032;50.782;6.818;2024-03-23T03:13:12;99877.81;;;8.08;79.70
72892;BME280;61032;50.782;6.818;2024-03-23T03:14:12;99869.59;;;8.08;79.07
72892;BME280;61032;50.782;6.818;2024-03-23T03:15:13;99859.81;;;7.99;79.64
72892;BME280;61032;50.782;6.818;2024-03-23T03:16:13;99864.31;;;8.03;79.97
72892;BME280;61032;50.782;6.818;2024-03-23T03:17:14;99865.91;;;8.04;79.56
72892;BME280;61032;50.782;6.818;2024-03-23T03:18:15;99868.47;;;8.09;79.72
72892;BME280;61032;50.782;6.818;2024-03-23T03:19:15;99873.66;;;8.02;79.70
72892;BME280;61032;50.782;6.818;2024-03-23T03:20:16;99882.50;;;7.99;79.90
72892;BME280;61032;50.782;6.818;2024-03-23T03:21:18;99885.72;;;8.01;79.46
72892;BME280;61032;50.782;6.818;2024-03-23T03:22:19;99890.09;;;7.93;78.41
72892;BME280;61032;50.782;6.818;2024-03-23T03:23:20;99891.38;;;7.96;78.87
72892;BME280;61032;50.782;6.818;2024-03-23T03:24:20;99900.38;;;7.97;79.44
72892;BME280;61032;50.782;6.818;2024-03-23T03:25:21;99890.41;;;7.92;80.04
72892;BME280;61032;50.782;6.818;2024-03-23T03:26:22;99892.66;;;7.99;79.94
72892;BME280;61032;50.782;6.818;2024-03-23T03:27:23;99884.09;;;8.09;79.51
72892;BME280;61032;50.782;6.818;2024-03-23T03:28:23;99881.16;;;8.14;78.46
72892;BME280;61032;50.782;6.818;2024-03-23T03:29:24;99879.75;;;8.08;78.24
72892;BME280;61032;50.782;6.818;2024-03-23T03:30:25;99875.88;;;8.09;78.66
72892;BME280;61032;50.782;6.818;2024-03-23T03:31:26;99879.88;;;8.11;78.54
72892;BME280;61032;50.782;6.818;2024-03-23T03:32:26;99878.75;;;8.12;78.14
72892;BME280;61032;50.782;6.818;2024-03-23T03:33:27;99870.41;;;8.09;78.42
72892;BME280;61032;50.782;6.818;2024-03-23T03:34:28;99875.09;;;8.08;77.74
72892;BME280;61032;50.782;6.818;2024-03-23T03:35:29;99868.47;;;8.09;77.36
72892;BME280;61032;50.782;6.818;2024-03-23T03:36:30;99875.69;;;8.14;77.82
72892;BME280;61032;50.782;6.818;2024-03-23T03:37:30;99880.09;;;8.06;77.83
72892;BME280;61032;50.782;6.818;2024-03-23T03:38:31;99876.22;;;8.07;78.24
72892;BME280;61032;50.782;6.818;2024-03-23T03:39:31;99876.72;;;8.01;78.14
72892;BME280;61032;50.782;6.818;2024-03-23T03:40:31;99870.75;;;7.99;78.03
72892;BME280;61032;50.782;6.818;2024-03-23T03:41:32;99866.25;;;7.94;78.50
72892;BME280;61032;50.782;6.818;2024-03-23T03:42:32;99872.84;;;8.02;78.57
72892;BME280;61032;50.782;6.818;2024-03-23T03:43:33;99870.25;;;8.05;77.90
72892;BME280;61032;50.782;6.818;2024-03-23T03:44:33;99876.09;;;7.95;78.09
72892;BME280;61032;50.782;6.818;2024-03-23T03:45:34;99883.97;;;7.97;78.16
72892;BME280;61032;50.782;6.818;2024-03-23T03:46:34;99884.28;;;7.95;78.72
72892;BME280;61032;50.782;6.818;2024-03-23T03:47:34;99891.84;;;7.98;78.86
72892;BME280;61032;50.782;6.818;2024-03-23T03:48:35;99883.63;;;7.98;78.29
72892;BME280;61032;50.782;6.818;2024-03-23T03:49:35;99879.16;;;7.93;78.75
72892;BME280;61032;50.782;6.818;2024-03-23T03:50:36;99880.09;;;7.98;78.99
72892;BME280;61032;50.782;6.818;2024-03-23T03:51:36;99877.50;;;8.01;78.43
72892;BME280;61032;50.782;6.818;2024-03-23T03:52:37;99882.03;;;7.97;78.55
72892;BME280;61032;50.782;6.818;2024-03-23T03:53:37;99873.81;;;7.97;78.93
72892;BME280;61032;50.782;6.818;2024-03-23T03:54:37;99878.66;;;8.00;79.25
72892;BME280;61032;50.782;6.818;2024-03-23T03:55:38;99879.28;;;8.06;79.24
72892;BME280;61032;50.782;6.818;2024-03-23T03:56:38;99890.06;;;8.02;79.38
72892;BME280;61032;50.782;6.818;2024-03-23T03:57:39;99889.13;;;7.98;79.21
72892;BME280;61032;50.782;6.818;2024-03-23T03:58:39;99887.88;;;7.87;80.01
72892;BME280;61032;50.782;6.818;2024-03-23T03:59:40;99887.19;;;7.90;80.13
72892;BME280;61032;50.782;6.818;2024-03-23T04:00:40;99890.41;;;7.92;80.31
72892;BME280;61032;50.782;6.818;2024-03-23T04:01:41;99892.22;;;7.88;80.79
72892;BME280;61032;50.782;6.818;2024-03-23T04:02:41;99890.41;;;7.92;80.66
72892;BME280;61032;50.782;6.818;2024-03-23T04:03:43;99897.19;;;7.94;80.28
72892;BME280;61032;50.782;6.818;2024-03-23T04:04:44;99897.31;;;7.98;80.20
72892;BME280;61032;50.782;6.818;2024-03-23T04:05:53;99895.88;;;8.01;79.66
72892;BME280;61032;50.782;6.818;2024-03-23T04:07:00;99894.09;;;7.96;78.72
72892;BME280;61032;50.782;6.818;2024-03-23T04:08:01;99893.31;;;7.96;78.47
72892;BME280;61032;50.782;6.818;2024-03-23T04:09:01;99896.09;;;7.87;78.60
72892;BME280;61032;50.782;6.818;2024-03-23T04:10:02;99902.22;;;7.84;79.09
72892;BME280;61032;50.782;6.818;2024-03-23T04:11:07;99903.50;;;7.86;79.30
72892;BME280;61032;50.782;6.818;2024-03-23T04:12:07;99903.03;;;7.84;79.11
72892;BME280;61032;50.782;6.818;2024-03-23T04:13:08;99901.72;;;7.82;78.97
72892;BME280;61032;50.782;6.818;2024-03-23T04:14:08;99904.00;;;7.80;79.28
72892;BME280;61032;50.782;6.818;2024-03-23T04:15:09;99899.34;;;7.72;79.54
72892;BME280;61032;50.782;6.818;2024-03-23T04:16:10;99898.22;;;7.73;79.76
72892;BME280;61032;50.782;6.818;2024-03-23T04:17:10;99905.00;;;7.67;79.59
72892;BME280;61032;50.782;6.818;2024-03-23T04:18:11;99899.66;;;7.70;79.98
72892;BME280;61032;50.782;6.818;2024-03-23T04:19:11;99898.06;;;7.69;80.40
72892;BME280;61032;50.782;6.818;2024-03-23T04:20:12;99894.19;;;7.70;80.03
72892;BME280;61032;50.782;6.818;2024-03-23T04:21:16;99896.28;;;7.73;79.61
72892;BME280;61032;50.782;6.818;2024-03-23T04:22:17;99907.41;;;7.68;78.72
72892;BME280;61032;50.782;6.818;2024-03-23T04:23:18;99904.03;;;7.63;78.69
72892;BME280;61032;50.782;6.818;2024-03-23T04:24:18;99909.69;;;7.40;79.80
72892;BME280;61032;50.782;6.818;2024-03-23T04:25:21;99908.75;;;7.19;80.63
72892;BME280;61032;50.782;6.818;2024-03-23T04:26:21;99909.53;;;7.28;80.23
72892;BME280;61032;50.782;6.818;2024-03-23T04:27:21;99914.38;;;7.14;80.88
72892;BME280;61032;50.782;6.818;2024-03-23T04:28:22;99911.78;;;7.09;81.39
72892;BME280;61032;50.782;6.818;2024-03-23T04:29:23;99919.22;;;7.00;82.03
72892;BME280;61032;50.782;6.818;2024-03-23T04:30:23;99919.38;;;7.03;82.65
72892;BME280;61032;50.782;6.818;2024-03-23T04:31:25;99924.34;;;7.10;82.18
72892;BME280;61032;50.782;6.818;2024-03-23T04:32:25;99921.94;;;7.08;82.02
72892;BME280;61032;50.782;6.818;2024-03-23T04:33:26;99924.50;;;7.13;81.87
72892;BME280;61032;50.782;6.818;2024-03-23T04:34:26;99922.09;;;7.20;81.98
72892;BME280;61032;50.782;6.818;2024-03-23T04:35:27;99922.41;;;7.28;81.29
72892;BME280;61032;50.782;6.818;2024-03-23T04:36:27;99920.31;;;7.07;80.72
72892;BME280;61032;50.782;6.818;2024-03-23T04:37:27;99922.09;;;7.12;81.57
72892;BME280;61032;50.782;6.818;2024-03-23T04:38:28;99924.81;;;6.95;81.93
72892;BME280;61032;50.782;6.818;2024-03-23T04:39:28;99923.53;;;7.01;82.57
72892;BME280;61032;50.782;6.818;2024-03-23T04:40:29;99924.66;;;7.00;81.63
72892;BME280;61032;50.782;6.818;2024-03-23T04:41:29;99921.13;;;6.82;81.94
72892;BME280;61032;50.782;6.818;2024-03-23T04:42:31;99911.16;;;6.77;83.43
72892;BME280;61032;50.782;6.818;2024-03-23T04:43:31;99916.94;;;6.76;83.10
72892;BME280;61032;50.782;6.818;2024-03-23T04:44:31;99914.34;;;6.88;82.72
72892;BME280;61032;50.782;6.818;2024-03-23T04:45:32;99917.06;;;6.71;82.95
72892;BME280;61032;50.782;6.818;2024-03-23T04:46:32;99916.25;;;6.70;83.21
72892;BME280;61032;50.782;6.818;2024-03-23T04:47:33;99919.47;;;6.72;83.92
72892;BME280;61032;50.782;6.818;2024-03-23T04:48:35;99914.19;;;6.76;83.74
72892;BME280;61032;50.782;6.818;2024-03-23T04:49:36;99916.94;;;6.76;84.10
72892;BME280;61032;50.782;6.818;2024-03-23T04:50:37;99915.47;;;6.78;84.14
72892;BME280;61032;50.782;6.818;2024-03-23T04:51:37;99913.22;;;6.89;84.63
72892;BME280;61032;50.782;6.818;2024-03-23T04:52:38;99910.34;;;6.94;84.40
72892;BME280;61032;50.782;6.818;2024-03-23T04:53:38;99906.66;;;6.99;84.38
72892;BME280;61032;50.782;6.818;2024-03-23T04:54:39;99897.66;;;7.07;84.15
72892;BME280;61032;50.782;6.818;2024-03-23T04:55:43;99907.00;;;7.06;83.43
72892;BME280;61032;50.782;6.818;2024-03-23T04:56:44;99898.31;;;7.04;83.17
72892;BME280;61032;50.782;6.818;2024-03-23T04:57:47;99899.25;;;6.90;82.53
72892;BME280;61032;50.782;6.818;2024-03-23T04:58:47;99906.47;;;6.86;83.43
72892;BME280;61032;50.782;6.818;2024-03-23T04:59:48;99906.81;;;6.94;83.98
72892;BME280;61032;50.782;6.818;2024-03-23T05:00:53;99891.22;;;6.94;83.33
72892;BME280;61032;50.782;6.818;2024-03-23T05:01:53;99898.63;;;7.02;83.88
72892;BME280;61032;50.782;6.818;2024-03-23T05:02:54;99896.81;;;6.72;83.90
72892;BME280;61032;50.782;6.818;2024-03-23T05:03:54;99905.22;;;6.84;84.16
72892;BME280;61032;50.782;6.818;2024-03-23T05:04:54;99901.50;;;6.71;83.93
72892;BME280;61032;50.782;6.818;2024-03-23T05:05:55;99904.22;;;6.71;84.86
72892;BME280;61032;50.782;6.818;2024-03-23T05:06:55;99906.28;;;6.57;85.36
72892;BME280;61032;50.782;6.818;2024-03-23T05:07:56;99907.91;;;6.58;85.64
72892;BME280;61032;50.782;6.818;2024-03-23T05:08:56;99908.69;;;6.67;85.83
72892;BME280;61032;50.782;6.818;2024-03-23T05:09:57;99902.28;;;6.63;85.51
72892;BME280;61032;50.782;6.818;2024-03-23T05:10:57;99902.47;;;6.75;85.88
72892;BME280;61032;50.782;6.818;2024-03-23T05:11:57;99902.63;;;6.79;85.26
72892;BME280;61032;50.782;6.818;2024-03-23T05:12:58;99905.66;;;6.86;85.32
72892;BME280;61032;50.782;6.818;2024-03-23T05:13:58;99911.97;;;6.95;85.47
72892;BME280;61032;50.782;6.818;2024-03-23T05:14:59;99908.59;;;6.98;84.49
72892;BME280;61032;50.782;6.818;2024-03-23T05:15:59;99908.41;;;6.86;83.62
72892;BME280;61032;50.782;6.818;2024-03-23T05:17:00;99906.47;;;6.86;83.97
72892;BME280;61032;50.782;6.818;2024-03-23T05:18:00;99908.28;;;7.00;84.10
72892;BME280;61032;50.782;6.818;2024-03-23T05:19:01;99908.44;;;7.03;84.28
72892;BME280;61032;50.782;6.818;2024-03-23T05:20:01;99903.63;;;7.00;83.87
72892;BME280;61032;50.782;6.818;2024-03-23T05:21:03;99908.91;;;6.79;83.16
72892;BME280;61032;50.782;6.818;2024-03-23T05:22:04;99909.22;;;6.86;83.54
72892;BME280;61032;50.782;6.818;2024-03-23T05:23:04;99904.72;;;6.90;84.29
72892;BME280;61032;50.782;6.818;2024-03-23T05:24:05;99911.16;;;6.95;84.06
72892;BME280;61032;50.782;6.818;2024-03-23T05:25:05;99905.53;;;7.00;84.54
72892;BME280;61032;50.782;6.818;2024-03-23T05:26:06;99912.28;;;7.02;83.69
72892;BME280;61032;50.782;6.818;2024-03-23T05:27:06;99915.19;;;7.06;83.47
72892;BME280;61032;50.782;6.818;2024-03-23T05:28:07;99912.78;;;7.13;83.84
72892;BME280;61032;50.782;6.818;2024-03-23T05:29:07;99914.72;;;7.21;84.16
72892;BME280;61032;50.782;6.818;2024-03-23T05:30:11;99910.22;;;7.25;83.49
72892;BME280;61032;50.782;6.818;2024-03-23T05:31:11;99900.06;;;7.26;83.58
72892;BME280;61032;50.782;6.818;2024-03-23T05:32:12;99909.41;;;7.16;82.64
72892;BME280;61032;50.782;6.818;2024-03-23T05:33:13;99912.94;;;7.25;82.66
72892;BME280;61032;50.782;6.818;2024-03-23T05:34:13;99908.28;;;7.26;82.44
72892;BME280;61032;50.782;6.818;2024-03-23T05:35:13;99907.00;;;7.23;82.53
72892;BME280;61032;50.782;6.818;2024-03-23T05:36:14;99916.59;;;6.86;83.47
72892;BME280;61032;50.782;6.818;2024-03-23T05:37:14;99914.03;;;6.89;84.23
72892;BME280;61032;50.782;6.818;2024-03-23T05:38:15;99907.16;;;7.01;84.40
72892;BME280;61032;50.782;6.818;2024-03-23T05:39:15;99904.09;;;7.02;84.26
72892;BME280;61032;50.782;6.818;2024-03-23T05:40:16;99904.72;;;7.08;83.84
72892;BME280;61032;50.782;6.818;2024-03-23T05:41:17;99909.88;;;7.01;83.65
72892;BME280;61032;50.782;6.818;2024-03-23T05:42:17;99904.59;;;7.04;83.69
72892;BME280;61032;50.782;6.818;2024-03-23T05:43:18;99913.59;;;7.05;83.28
72892;BME280;61032;50.782;6.818;2024-03-23T05:44:18;99913.25;;;7.15;83.41
72892;BME280;61032;50.782;6.818;2024-03-23T05:45:19;99919.84;;;7.14;82.47
72892;BME280;61032;50.782;6.818;2024-03-23T05:46:19;99912.13;;;7.07;82.85
72892;BME280;61032;50.782;6.818;2024-03-23T05:47:20;99922.72;;;7.09;82.48
72892;BME280;61032;50.782;6.818;2024-03-23T05:48:20;99925.94;;;6.94;82.79
72892;BME280;61032;50.782;6.818;2024-03-23T05:49:21;99920.63;;;6.88;83.10
72892;BME280;61032;50.782;6.818;2024-03-23T05:50:21;99919.19;;;6.82;84.26
72892;BME280;61032;50.782;6.818;2024-03-23T05:51:22;99918.22;;;6.78;84.34
72892;BME280;61032;50.782;6.818;2024-03-23T05:52:22;99913.38;;;6.75;84.69
72892;BME280;61032;50.782;6.818;2024-03-23T05:53:25;99919.34;;;6.95;85.41
72892;BME280;61032;50.782;6.818;2024-03-23T05:54:25;99927.22;;;6.87;84.49
72892;BME280;61032;50.782;6.818;2024-03-23T05:55:26;99923.03;;;6.90;84.28
72892;BME280;61032;50.782;6.818;2024-03-23T05:56:27;99925.47;;;6.83;84.24
72892;BME280;61032;50.782;6.818;2024-03-23T05:57:28;99924.59;;;6.65;84.62
72892;BME280;61032;50.782;6.818;2024-03-23T05:58:28;99926.56;;;6.65;85.28
72892;BME280;61032;50.782;6.818;2024-03-23T05:59:28;99925.59;;;6.69;85.39
72892;BME280;61032;50.782;6.818;2024-03-23T06:00:29;99925.38;;;6.48;84.76
72892;BME280;61032;50.782;6.818;2024-03-23T06:01:29;99928.09;;;6.48;85.39
72892;BME280;61032;50.782;6.818;2024-03-23T06:02:32;99933.06;;;6.46;84.69
72892;BME280;61032;50.782;6.818;2024-03-23T06:03:33;99931.03;;;6.61;85.30
72892;BME280;61032;50.782;6.818;2024-03-23T06:04:35;99926.56;;;6.73;84.61
72892;BME280;61032;50.782;6.818;2024-03-23T06:05:38;99924.59;;;6.65;84.42
72892;BME280;61032;50.782;6.818;2024-03-23T06:06:39;99929.44;;;6.68;84.75
72892;BME280;61032;50.782;6.818;2024-03-23T06:07:40;99931.22;;;6.73;84.84
72892;BME280;61032;50.782;6.818;2024-03-23T06:08:40;99929.91;;;6.62;84.08
72892;BME280;61032;50.782;6.818;2024-03-23T06:09:41;99928.94;;;6.66;84.36
72892;BME280;61032;50.782;6.818;2024-03-23T06:10:42;99930.56;;;6.59;84.65
72892;BME280;61032;50.782;6.818;2024-03-23T06:11:42;99929.56;;;6.54;84.92
72892;BME280;61032;50.782;6.818;2024-03-23T06:12:42;99928.00;;;6.62;85.36
72892;BME280;61032;50.782;6.818;2024-03-23T06:13:43;99927.38;;;6.74;85.39
72892;BME280;61032;50.782;6.818;2024-03-23T06:14:43;99926.59;;;6.82;85.11
72892;BME280;61032;50.782;6.818;2024-03-23T06:15:44;99927.34;;;6.57;85.21
72892;BME280;61032;50.782;6.818;2024-03-23T06:16:45;99926.88;;;6.63;85.19
72892;BME280;61032;50.782;6.818;2024-03-23T06:17:46;99937.47;;;6.73;84.89
72892;BME280;61032;50.782;6.818;2024-03-23T06:18:46;99939.09;;;6.74;84.38
72892;BME280;61032;50.782;6.818;2024-03-23T06:19:47;99935.28;;;6.84;84.51